Time;durP1;ratioP1;P1;durP2;ratioP2;P2;SDS_P1;SDS_P2;PMS_P1;PMS_P2;Temp;Humidity;BMP_temperature;BMP_pressure;BME280_temperature;BME280_humidity;BME280_pressure;Samples;Min_cycle;Max_cycle;Signal;HPM_P1;HPM_P2
2022/05/24 00:01:18;;;;;;;14.23;6.78;;;;;;;20.81;66.82;97914.69;5032944;28;20075;-47
2022/05/24 00:03:44;;;;;;;10.38;3.70;;;;;;;20.65;68.05;97926.63;5015082;28;20030;-48
2022/05/24 00:06:11;;;;;;;6.40;2.53;;;;;;;20.54;67.89;97924.06;5032930;28;20079;-47
2022/05/24 00:08:36;;;;;;;8.00;2.63;;;;;;;20.41;68.06;97932.72;5015101;28;20121;-47
2022/05/24 00:11:02;;;;;;;6.78;2.28;;;;;;;20.35;67.79;97917.84;5033023;28;20104;-47
2022/05/24 00:13:28;;;;;;;8.40;3.85;;;;;;;20.34;68.24;97916.25;5015015;28;20025;-47
2022/05/24 00:15:53;;;;;;;13.90;5.00;;;;;;;20.17;68.65;97911.38;5032597;28;20087;-47
2022/05/24 00:18:23;;;;;;;6.00;2.15;;;;;;;20.07;67.45;97906.94;5032452;28;20048;-47
2022/05/24 00:20:53;;;;;;;7.05;2.45;;;;;;;20.04;67.79;97898.72;5014863;28;20049;-47
2022/05/24 00:23:21;;;;;;;8.63;2.80;;;;;;;20.00;67.87;97898.50;5032565;28;20053;-46
2022/05/24 00:25:52;;;;;;;11.23;3.55;;;;;;;19.95;68.09;97907.31;5014657;28;20035;-47
2022/05/24 00:28:20;;;;;;;12.02;3.72;;;;;;;19.87;68.00;97901.81;5032677;28;20441;-47
2022/05/24 00:30:48;;;;;;;8.73;4.13;;;;;;;19.79;68.52;97905.06;5014512;28;20521;-47
2022/05/24 00:33:14;;;;;;;9.35;2.60;;;;;;;19.69;68.55;97909.38;5032361;28;20079;-48
2022/05/24 00:35:41;;;;;;;13.20;3.53;;;;;;;19.69;67.97;97901.38;5014501;28;20026;-47
2022/05/24 00:38:10;;;;;;;17.83;3.90;;;;;;;19.60;68.17;97891.59;5032278;28;20029;-47
2022/05/24 00:40:45;;;;;;;12.82;2.30;;;;;;;19.57;67.83;97895.63;5032190;28;20044;-46
2022/05/24 00:43:49;;;;;;;12.45;3.25;;;;;;;19.51;66.87;97894.88;5032227;28;20029;-47
2022/05/24 00:46:29;;;;;;;14.50;3.72;;;;;;;19.38;66.78;97905.34;5031571;28;20041;-47
2022/05/24 00:49:13;;;;;;;16.08;4.60;;;;;;;19.34;67.45;97911.22;5014381;28;20045;-48
2022/05/24 00:52:14;;;;;;;21.25;3.03;;;;;;;19.39;66.53;97913.06;5032117;28;20030;-47
2022/05/24 00:54:42;;;;;;;11.07;2.10;;;;;;;19.36;66.15;97918.94;5021564;28;20124;-46
2022/05/24 00:57:40;;;;;;;7.22;2.22;;;;;;;19.29;65.08;97921.91;5031869;28;20120;-47
2022/05/24 01:00:17;;;;;;;9.18;3.15;;;;;;;19.25;65.05;97923.53;5031926;28;20064;-47
2022/05/24 01:02:44;;;;;;;10.45;2.95;;;;;;;19.30;65.16;97930.69;5014229;28;20060;-47
2022/05/24 01:05:14;;;;;;;14.50;2.45;;;;;;;19.35;65.19;97930.66;5031789;28;20515;-47
2022/05/24 01:07:40;;;;;;;7.18;1.65;;;;;;;19.37;64.83;97928.50;5014156;28;20410;-48
2022/05/24 01:10:12;;;;;;;14.00;3.20;;;;;;;19.36;64.76;97929.59;5031758;28;20030;-47
2022/05/24 01:13:02;;;;;;;6.20;1.80;;;;;;;19.29;64.55;97923.78;5031794;28;20120;-47
2022/05/24 01:15:28;;;;;;;13.07;2.65;;;;;;;19.22;64.53;97926.75;5032081;28;20080;-48
2022/05/24 01:17:55;;;;;;;21.17;2.97;;;;;;;19.25;64.16;97922.72;5010467;28;20423;-47
2022/05/24 01:20:22;;;;;;;11.60;2.40;;;;;;;19.21;63.78;97925.13;5011921;28;20030;-47
2022/05/24 01:23:12;;;;;;;10.48;2.55;;;;;;;19.11;63.24;97922.53;5010774;28;20369;-48
2022/05/24 01:26:02;;;;;;;11.90;2.35;;;;;;;19.11;62.95;97926.00;5011998;28;20026;-47
2022/05/24 01:28:53;;;;;;;10.15;1.92;;;;;;;19.17;62.33;97924.09;5011967;28;20117;-47
2022/05/24 01:31:21;;;;;;;10.20;2.15;;;;;;;19.19;62.42;97924.63;5010634;28;20034;-47
2022/05/24 01:36:36;;;;;;;11.48;2.50;;;;;;;19.15;62.90;97918.25;5011942;28;20144;-48
2022/05/24 01:39:11;;;;;;;4.78;1.60;;;;;;;19.13;63.05;97920.41;5012008;28;20057;-48
2022/05/24 01:41:44;;;;;;;12.15;1.70;;;;;;;18.96;63.37;97934.06;5010638;28;20112;-47
2022/05/24 01:44:12;;;;;;;8.93;1.85;;;;;;;18.75;63.97;97934.13;5011862;28;20092;-47
2022/05/24 01:46:45;;;;;;;5.97;1.67;;;;;;;18.68;64.89;97930.16;5011835;28;20054;-48
2022/05/24 01:49:23;;;;;;;11.10;2.13;;;;;;;18.56;65.37;97933.91;5011829;28;20423;-48
2022/05/24 01:52:18;;;;;;;10.77;1.77;;;;;;;18.45;65.37;97937.69;4994130;28;20033;-48
2022/05/24 01:54:49;;;;;;;8.90;2.50;;;;;;;18.42;65.32;97932.88;5009305;28;20045;-47
2022/05/24 01:57:27;;;;;;;7.13;1.65;;;;;;;18.47;64.75;97943.53;5010433;28;20025;-47
2022/05/24 01:59:56;;;;;;;13.57;2.83;;;;;;;18.41;65.44;97949.91;5011772;28;20422;-48
2022/05/24 02:02:22;;;;;;;16.67;7.70;;;;;;;18.41;66.26;97949.09;5011587;28;20025;-47
2022/05/24 02:04:48;;;;;;;13.10;3.50;;;;;;;18.42;67.76;97948.03;5010295;28;20089;-47
2022/05/24 02:07:21;;;;;;;18.65;4.47;;;;;;;18.50;68.66;97942.19;5011590;28;20037;-47
2022/05/24 02:09:50;;;;;;;42.05;28.80;;;;;;;18.59;68.78;97950.38;5010326;28;20124;-47
2022/05/24 02:12:25;;;;;;;14.60;3.35;;;;;;;18.69;68.57;97951.16;5011550;28;20451;-48
2022/05/24 02:14:55;;;;;;;10.00;6.20;;;;;;;18.79;68.02;97953.00;5010258;28;20507;-47
2022/05/24 02:17:25;;;;;;;16.30;5.32;;;;;;;18.87;67.67;97954.28;5015075;28;20050;-48
2022/05/24 02:19:54;;;;;;;10.95;5.07;;;;;;;18.84;67.26;97952.97;5031250;28;20056;-47
2022/05/24 02:22:22;;;;;;;7.95;2.95;;;;;;;18.73;67.30;97965.50;5033676;28;20026;-48
2022/05/24 02:25:10;;;;;;;10.73;3.90;;;;;;;18.65;66.95;97967.91;5034789;28;20112;-47
2022/05/24 02:27:43;;;;;;;7.53;2.13;;;;;;;18.64;66.48;97971.63;5034786;28;20388;-47
2022/05/24 02:30:15;;;;;;;12.05;5.15;;;;;;;18.75;67.07;97973.19;5034700;28;20438;-48
2022/05/24 02:32:41;;;;;;;9.20;3.20;;;;;;;18.94;66.05;97970.75;5016781;28;20061;-47
2022/05/24 02:35:07;;;;;;;13.90;2.30;;;;;;;18.99;65.67;97973.38;5034487;28;20415;-48
2022/05/24 02:37:33;;;;;;;20.35;10.75;;;;;;;19.02;65.74;97972.84;5034453;28;20029;-47
2022/05/24 02:42:43;;;;;;;9.68;2.72;;;;;;;19.17;65.14;97979.97;5034811;28;20533;-47
2022/05/24 02:45:09;;;;;;;14.35;2.40;;;;;;;19.08;64.72;97984.28;5016621;28;20030;-47
2022/05/24 02:47:34;;;;;;;16.00;3.22;;;;;;;18.96;64.52;97984.59;5016549;28;20037;-47
2022/05/24 02:50:00;;;;;;;11.05;2.83;;;;;;;18.98;64.75;97993.09;5016526;28;20035;-47
2022/05/24 02:52:26;;;;;;;11.95;4.13;;;;;;;19.08;64.44;97986.94;5034175;28;20079;-47
2022/05/24 02:54:52;;;;;;;7.47;2.00;;;;;;;19.27;63.99;97995.88;5034170;28;20025;-48
2022/05/24 02:57:17;;;;;;;11.13;2.00;;;;;;;19.43;64.40;98001.13;5034215;28;20029;-48
2022/05/24 02:59:43;;;;;;;9.25;1.25;;;;;;;19.51;59.89;98013.84;5034428;28;20196;-47
2022/05/24 03:02:09;;;;;;;3.95;1.17;;;;;;;19.69;58.82;98017.72;5034073;28;20103;-47
2022/05/24 03:04:35;;;;;;;6.68;1.30;;;;;;;19.95;57.25;98032.50;5034336;28;20026;-48
2022/05/24 03:09:45;;;;;;;6.57;1.25;;;;;;;19.74;56.26;98052.34;5034279;28;20168;-47
2022/05/24 03:14:56;;;;;;;3.53;0.80;;;;;;;19.69;55.18;98052.34;5033825;28;20514;-47
2022/05/24 03:17:23;;;;;;;7.78;0.90;;;;;;;19.68;54.91;98043.56;5033568;28;20120;-47
2022/05/24 03:19:49;;;;;;;2.95;0.88;;;;;;;19.72;54.58;98062.47;5033856;28;20036;-47
2022/05/24 03:22:15;;;;;;;5.35;1.00;;;;;;;19.85;54.51;98063.72;5016226;28;20029;-47
2022/05/24 03:24:41;;;;;;;3.38;0.68;;;;;;;19.93;53.87;98071.91;5015820;28;20036;-47
2022/05/24 03:27:11;;;;;;;2.13;0.50;;;;;;;19.98;53.51;98072.97;5015832;28;20030;-47
2022/05/24 03:29:38;;;;;;;5.45;0.80;;;;;;;19.89;53.59;98070.09;5033533;28;20033;-47
2022/05/24 03:32:06;;;;;;;3.17;0.82;;;;;;;19.91;53.56;98074.06;5033211;28;20028;-47
2022/05/24 03:34:31;;;;;;;4.55;0.82;;;;;;;19.99;53.61;98072.69;5015002;28;20439;-47
2022/05/24 03:36:57;;;;;;;6.80;1.08;;;;;;;20.12;53.29;98072.06;5033391;28;20028;-46
2022/05/24 03:39:23;;;;;;;7.05;1.20;;;;;;;20.25;52.95;98072.50;5033432;28;20036;-46
2022/05/24 03:41:49;;;;;;;3.78;0.90;;;;;;;20.35;52.58;98094.53;5033371;28;20408;-47
2022/05/24 03:44:15;;;;;;;9.00;1.25;;;;;;;20.44;52.21;98094.72;5015537;28;20026;-47
2022/05/24 03:46:44;;;;;;;5.22;1.50;;;;;;;20.47;52.12;98104.84;5033265;28;20022;-46
2022/05/24 03:49:10;;;;;;;8.45;2.67;;;;;;;20.43;52.31;98103.81;5033274;28;20026;-47
2022/05/24 03:51:36;;;;;;;5.28;0.98;;;;;;;20.39;52.06;98108.09;5015318;28;20025;-47
2022/05/24 03:54:02;;;;;;;7.57;0.93;;;;;;;20.37;51.90;98112.91;5015325;28;20449;-47
2022/05/24 03:56:28;;;;;;;5.60;0.80;;;;;;;20.43;51.52;98113.69;5015245;28;20036;-47
2022/05/24 03:58:54;;;;;;;8.75;1.25;;;;;;;20.52;50.48;98115.47;5033066;28;20558;-47
2022/05/24 04:01:20;;;;;;;5.60;1.15;;;;;;;20.61;49.84;98117.56;5032952;28;20028;-47
2022/05/24 04:03:46;;;;;;;2.75;0.60;;;;;;;20.68;49.78;98126.03;5032881;28;20036;-47
2022/05/24 04:06:11;;;;;;;3.95;1.00;;;;;;;20.65;49.61;98129.25;5032824;28;20057;-47
2022/05/24 04:08:37;;;;;;;4.13;1.38;;;;;;;20.53;49.67;98126.94;5032759;28;20053;-47
2022/05/24 04:11:07;;;;;;;6.93;0.80;;;;;;;20.44;49.68;98128.59;5032809;28;20124;-46
2022/05/24 04:13:34;;;;;;;3.67;1.00;;;;;;;20.25;49.89;98134.59;5032690;28;20033;-47
2022/05/24 04:16:00;;;;;;;3.28;2.28;;;;;;;20.07;50.36;98141.34;5032856;28;20029;-46
2022/05/24 04:18:26;;;;;;;8.43;1.40;;;;;;;19.99;50.55;98155.25;5011334;28;20045;-47
2022/05/24 04:20:58;;;;;;;12.35;1.13;;;;;;;19.88;50.74;98153.72;5012932;28;20037;-47
2022/05/24 04:23:25;;;;;;;9.77;1.35;;;;;;;19.90;50.53;98156.91;5012861;28;20045;-48
2022/05/24 04:25:53;;;;;;;8.50;1.00;;;;;;;19.87;50.31;98152.91;5012815;28;20061;-47
2022/05/24 04:28:20;;;;;;;6.07;1.08;;;;;;;19.83;50.00;98151.88;5012746;28;20495;-47
2022/05/24 04:30:51;;;;;;;9.60;0.90;;;;;;;19.73;49.63;98160.69;5012776;28;20022;-47
2022/05/24 04:33:17;;;;;;;6.03;0.85;;;;;;;19.62;49.39;98161.78;5012771;28;20034;-47
2022/05/24 04:35:44;;;;;;;6.38;1.00;;;;;;;19.64;49.43;98169.50;5011245;28;20508;-47
2022/05/24 04:38:10;;;;;;;4.50;0.80;;;;;;;19.68;49.19;98173.19;5012643;28;20054;-49
2022/05/24 04:43:22;;;;;;;7.67;0.80;;;;;;;19.74;49.00;98174.81;5012580;28;20033;-46
2022/05/24 04:45:53;;;;;;;1.83;0.70;;;;;;;19.85;48.26;98167.59;5012245;28;20033;-47
2022/05/24 04:48:20;;;;;;;3.83;0.80;;;;;;;19.81;48.13;98174.53;5012403;28;20033;-47
2022/05/24 04:50:46;;;;;;;4.80;0.70;;;;;;;19.87;48.16;98173.44;5011074;28;20032;-47
2022/05/24 04:53:12;;;;;;;11.65;1.17;;;;;;;19.95;47.80;98186.19;5012369;28;20021;-47
2022/05/24 04:55:38;;;;;;;5.20;0.88;;;;;;;20.08;47.52;98190.09;5012255;28;20025;-47
2022/05/24 04:58:04;;;;;;;9.82;1.02;;;;;;;20.25;47.22;98187.88;5011077;28;20096;-49
2022/05/24 05:00:29;;;;;;;16.10;11.02;;;;;;;20.23;47.23;98186.56;5012320;28;20057;-49
2022/05/24 05:02:55;;;;;;;3.90;0.85;;;;;;;20.18;47.36;98189.25;5012257;28;20029;-47
2022/05/24 05:05:21;;;;;;;4.88;0.98;;;;;;;20.25;46.91;98193.22;5012171;28;20026;-47
2022/05/24 05:07:49;;;;;;;7.45;1.13;;;;;;;20.29;46.74;98194.25;5010913;28;20092;-49
2022/05/24 05:10:15;;;;;;;10.07;1.45;;;;;;;20.29;46.79;98191.59;5012173;28;20105;-49
2022/05/24 05:12:41;;;;;;;4.40;0.88;;;;;;;20.41;46.78;98193.13;5012136;28;20376;-50
2022/05/24 05:15:08;;;;;;;8.77;1.10;;;;;;;20.53;46.27;98194.38;5011988;28;20040;-48
2022/05/24 05:17:36;;;;;;;5.35;1.00;;;;;;;20.53;46.70;98207.69;5017126;28;20645;-49
2022/05/24 05:20:03;;;;;;;7.20;1.10;;;;;;;20.70;46.46;98201.19;5031816;28;20029;-47
2022/05/24 05:22:28;;;;;;;22.08;3.00;;;;;;;20.87;46.22;98214.16;5031758;28;20061;-47
2022/05/24 05:24:54;;;;;;;30.25;3.22;;;;;;;20.99;46.07;98216.44;5031760;28;20053;-49
2022/05/24 05:27:23;;;;;;;5.93;1.35;;;;;;;20.86;46.48;98209.88;5031710;28;20018;-47
2022/05/24 05:32:33;;;;;;;13.88;1.52;;;;;;;21.02;46.35;98223.91;5031973;28;20087;-47
2022/05/24 05:35:00;;;;;;;21.33;2.15;;;;;;;21.02;46.02;98223.91;5031584;28;20053;-47
2022/05/24 05:37:32;;;;;;;8.70;1.38;;;;;;;20.96;46.28;98215.13;5031613;28;20032;-47
2022/05/24 05:40:03;;;;;;;9.50;1.63;;;;;;;21.00;46.33;98221.50;5031785;28;20026;-47
2022/05/24 05:42:30;;;;;;;6.03;0.98;;;;;;;20.99;46.16;98235.13;5031631;28;20030;-48
2022/05/24 05:44:56;;;;;;;4.75;1.02;;;;;;;20.92;46.44;98241.56;5031577;28;20402;-47
2022/05/24 05:47:22;;;;;;;5.57;0.82;;;;;;;20.90;46.77;98243.72;5031504;28;20434;-48
2022/05/24 05:49:48;;;;;;;6.28;1.20;;;;;;;20.88;46.93;98255.75;5031549;28;20026;-48
2022/05/24 05:52:16;;;;;;;3.88;0.95;;;;;;;20.90;47.08;98249.06;5013762;28;20521;-47
2022/05/24 05:54:42;;;;;;;5.72;1.00;;;;;;;20.90;47.23;98243.72;5031331;28;20026;-48
2022/05/24 05:57:08;;;;;;;8.55;1.13;;;;;;;20.87;47.34;98241.63;5016149;28;20021;-47
2022/05/24 05:59:34;;;;;;;18.42;1.58;;;;;;;20.84;47.37;98244.84;5017519;28;20112;-47
2022/05/24 06:02:03;;;;;;;11.93;1.38;;;;;;;20.91;47.39;98244.53;5017443;28;20025;-47
2022/05/24 06:04:28;;;;;;;8.85;1.42;;;;;;;20.86;47.41;98241.88;5035108;28;20029;-47
2022/05/24 06:06:54;;;;;;;6.10;1.27;;;;;;;20.88;47.48;98239.75;5017364;28;20029;-47
2022/05/24 06:09:20;;;;;;;10.55;0.98;;;;;;;20.95;46.86;98246.34;5017291;28;20396;-47
2022/05/24 06:11:47;;;;;;;7.18;1.67;;;;;;;21.04;46.89;98243.09;5017285;28;20036;-48
2022/05/24 06:14:13;;;;;;;7.13;1.50;;;;;;;21.19;46.27;98250.16;5035010;28;20104;-47
2022/05/24 06:16:39;;;;;;;9.50;1.60;;;;;;;21.26;45.96;98254.09;5034893;28;20779;-47
2022/05/24 06:19:06;;;;;;;14.68;1.20;;;;;;;21.46;45.32;98247.81;5016946;28;20056;-46
2022/05/24 06:21:36;;;;;;;6.15;1.50;;;;;;;21.60;44.85;98244.47;5017076;28;20495;-47
2022/05/24 06:24:06;;;;;;;9.50;1.98;;;;;;;21.65;44.31;98245.22;5034863;28;20030;-48
2022/05/24 06:26:33;;;;;;;9.57;1.02;;;;;;;21.77;44.32;98247.47;5034837;28;20100;-48
2022/05/24 06:29:01;;;;;;;6.75;1.77;;;;;;;21.78;44.02;98251.75;5034793;28;20025;-47
2022/05/24 06:31:27;;;;;;;6.10;1.52;;;;;;;21.84;44.35;98253.28;5034591;28;20025;-47
2022/05/24 06:33:53;;;;;;;3.55;0.73;;;;;;;21.89;43.62;98263.09;5034659;28;20522;-47
2022/05/24 06:36:19;;;;;;;6.65;0.80;;;;;;;21.94;43.36;98265.72;5034549;28;20050;-47
2022/05/24 06:38:45;;;;;;;3.97;1.30;;;;;;;21.86;43.03;98263.69;5034563;28;20021;-48
2022/05/24 06:41:11;;;;;;;4.20;1.40;;;;;;;21.85;44.06;98272.78;5034500;28;20376;-48
2022/05/24 06:43:37;;;;;;;7.15;0.98;;;;;;;22.09;42.81;98273.56;5016679;28;20029;-47
2022/05/24 06:46:07;;;;;;;8.00;2.10;;;;;;;22.37;42.02;98276.44;5034335;28;20017;-47
2022/05/24 06:48:42;;;;;;;6.35;1.20;;;;;;;22.68;41.13;98265.34;5034388;28;20026;-47
2022/05/24 06:51:10;;;;;;;7.07;1.05;;;;;;;23.01;39.96;98266.16;5034373;28;20017;-47
2022/05/24 06:53:38;;;;;;;10.32;1.45;;;;;;;23.17;39.86;98258.72;5034282;28;20025;-49
2022/05/24 06:56:05;;;;;;;10.48;1.20;;;;;;;23.88;38.57;98256.63;5034059;28;20079;-47
2022/05/24 06:58:32;;;;;;;5.30;0.70;;;;;;;24.62;36.77;98260.25;5034252;28;20025;-48
2022/05/24 07:03:42;;;;;;;5.82;0.73;;;;;;;25.28;35.10;98253.31;5034221;28;20509;-47
2022/05/24 07:06:12;;;;;;;8.52;1.63;;;;;;;25.12;35.36;98260.13;5034025;28;20057;-48
2022/05/24 07:08:39;;;;;;;2.90;0.75;;;;;;;24.96;35.46;98259.72;5033865;28;20120;-47
2022/05/24 07:11:05;;;;;;;8.65;0.90;;;;;;;24.70;35.54;98257.63;5033945;28;20517;-47
2022/05/24 07:13:31;;;;;;;8.82;1.00;;;;;;;24.82;35.77;98250.94;5016403;28;20040;-47
2022/05/24 07:15:57;;;;;;;8.18;1.00;;;;;;;24.84;35.54;98254.88;5016028;28;20033;-47
2022/05/24 07:18:25;;;;;;;5.35;0.93;;;;;;;24.99;35.93;98255.59;5033582;28;20041;-48
2022/05/24 07:20:50;;;;;;;2.38;0.77;;;;;;;25.36;34.92;98254.47;5033823;28;20033;-48
2022/05/24 07:23:20;;;;;;;4.90;0.75;;;;;;;25.72;33.97;98258.88;5033681;28;20017;-47
2022/05/24 07:25:48;;;;;;;8.57;0.80;;;;;;;25.98;33.33;98261.69;5015865;28;20030;-47
2022/05/24 07:28:18;;;;;;;6.13;0.80;;;;;;;26.31;33.33;98240.53;5033594;28;20025;-47
2022/05/24 07:30:45;;;;;;;18.15;2.50;;;;;;;26.62;33.56;98249.63;5033517;28;20036;-47
2022/05/24 07:33:12;;;;;;;8.57;0.90;;;;;;;26.85;32.68;98252.94;5033558;28;20547;-47
2022/05/24 07:35:39;;;;;;;7.78;0.98;;;;;;;26.80;32.16;98251.22;5033306;28;20028;-48
2022/05/24 07:38:10;;;;;;;14.57;1.35;;;;;;;26.54;32.54;98250.38;5033447;28;20018;-47
2022/05/24 07:46:12;;;;;;;12.20;0.90;;;;;;;26.28;32.84;98251.94;5033642;28;20160;-48
2022/05/24 07:48:40;;;;;;;4.53;0.95;;;;;;;26.41;32.63;98252.13;5033345;28;20096;-48
2022/05/24 07:51:06;;;;;;;4.93;0.82;;;;;;;26.20;32.53;98250.03;5033197;28;20075;-48
2022/05/24 07:53:33;;;;;;;9.38;1.00;;;;;;;25.90;32.69;98257.09;5033151;28;20017;-48
2022/05/24 07:55:59;;;;;;;4.10;0.63;;;;;;;25.63;32.99;98264.22;5033014;28;20054;-48
2022/05/24 07:58:29;;;;;;;4.85;0.93;;;;;;;25.52;33.38;98261.00;5033070;28;20491;-47
2022/05/24 08:00:56;;;;;;;4.05;0.95;;;;;;;25.58;33.36;98264.38;5032996;28;20022;-49
2022/05/24 08:03:22;;;;;;;6.70;1.48;;;;;;;25.79;32.93;98261.13;5032913;28;20017;-48
2022/05/24 08:05:49;;;;;;;13.73;2.63;;;;;;;25.97;32.08;98251.25;5032804;28;20503;-47
2022/05/24 08:08:16;;;;;;;9.68;1.45;;;;;;;25.98;32.35;98253.63;5032854;28;20075;-47
2022/05/24 08:10:42;;;;;;;10.75;4.07;;;;;;;26.10;32.56;98261.09;5032731;28;20029;-48
2022/05/24 08:13:11;;;;;;;6.90;1.58;;;;;;;26.38;32.02;98256.25;5032668;28;20103;-48
2022/05/24 08:15:40;;;;;;;6.22;1.30;;;;;;;26.49;32.09;98260.19;5032726;28;20026;-49
2022/05/24 08:18:06;;;;;;;5.82;0.95;;;;;;;26.49;32.15;98257.50;5011375;28;20129;-49
2022/05/24 08:20:33;;;;;;;2.50;0.60;;;;;;;26.39;32.18;98265.09;5012338;28;20069;-48
2022/05/24 08:23:00;;;;;;;7.82;1.33;;;;;;;26.30;32.77;98257.03;5012824;28;20088;-49
2022/05/24 08:25:28;;;;;;;7.45;1.40;;;;;;;26.28;32.65;98254.63;5012823;28;20518;-49
2022/05/24 08:27:55;;;;;;;7.15;1.42;;;;;;;26.22;33.14;98255.09;5012828;28;20076;-49
2022/05/24 08:30:21;;;;;;;10.13;1.20;;;;;;;26.31;31.87;98247.81;5012627;28;20089;-49
2022/05/24 08:32:48;;;;;;;8.15;0.95;;;;;;;26.42;31.21;98256.38;5012706;28;20573;-49
2022/05/24 08:35:16;;;;;;;5.50;0.80;;;;;;;26.75;30.51;98250.56;5012579;28;20025;-49
2022/05/24 08:37:43;;;;;;;3.45;0.50;;;;;;;27.10;29.78;98252.13;5012664;28;20034;-48
2022/05/24 08:40:13;;;;;;;4.40;0.65;;;;;;;27.36;29.26;98253.19;5011211;28;20030;-48
2022/05/24 08:43:16;;;;;;;6.28;0.63;;;;;;;27.56;29.02;98249.78;5012632;28;20032;-50
2022/05/24 08:48:52;;;;;;;24.02;2.75;;;;;;;26.86;29.41;98255.31;5012537;28;20084;-49
2022/05/24 08:51:23;;;;;;;3.85;1.27;;;;;;;26.55;29.51;98263.53;5012416;28;20033;-50
2022/05/24 08:53:54;;;;;;;5.00;1.80;;;;;;;26.48;29.78;98255.94;5012419;28;20056;-49
2022/05/24 08:56:24;;;;;;;3.42;0.95;;;;;;;26.59;29.80;98255.66;5012269;28;20022;-49
2022/05/24 08:59:00;;;;;;;6.80;0.93;;;;;;;26.61;29.55;98248.81;5012391;28;20548;-49
2022/05/24 09:01:32;;;;;;;8.43;1.55;;;;;;;26.72;29.60;98249.28;5012311;28;20117;-50
2022/05/24 09:04:00;;;;;;;10.65;1.33;;;;;;;27.30;29.39;98247.94;5012245;28;20026;-48
2022/05/24 09:06:57;;;;;;;9.07;0.60;;;;;;;27.69;28.24;98246.09;5012202;28;20534;-50
2022/05/24 09:09:53;;;;;;;12.77;0.98;;;;;;;28.12;28.11;98236.22;5012244;28;20026;-48
2022/05/24 09:12:57;;;;;;;6.05;0.60;;;;;;;28.10;27.12;98246.53;5010831;28;20033;-48
2022/05/24 09:15:50;;;;;;;5.00;0.70;;;;;;;27.74;27.41;98249.72;5012003;28;20029;-48
2022/05/24 09:18:40;;;;;;;11.15;1.20;;;;;;;27.80;27.86;98240.31;5010125;28;20046;-50
2022/05/24 09:21:06;;;;;;;9.68;1.27;;;;;;;27.90;27.92;98245.38;5012087;28;20090;-48
2022/05/24 09:23:46;;;;;;;9.63;0.88;;;;;;;27.87;27.73;98243.34;5011958;28;20029;-48
2022/05/24 09:26:20;;;;;;;9.57;1.90;;;;;;;27.83;27.27;98237.78;5012032;28;20105;-47
2022/05/24 09:28:56;;;;;;;13.17;1.07;;;;;;;28.08;27.25;98227.97;5012048;28;20106;-49
2022/05/24 09:31:28;;;;;;;7.97;1.05;;;;;;;28.32;27.13;98234.66;5013158;28;20264;-50
2022/05/24 09:33:59;;;;;;;27.88;4.20;;;;;;;28.41;28.22;98223.78;5016080;28;20029;-47
2022/05/24 09:36:51;;;;;;;5.18;1.00;;;;;;;28.73;26.73;98224.19;5015888;28;20037;-48
2022/05/24 09:39:32;;;;;;;9.88;0.93;;;;;;;29.35;26.08;98230.56;5012715;28;20034;-48
2022/05/24 09:42:04;;;;;;;8.90;1.00;;;;;;;30.15;24.63;98235.44;5015910;28;20034;-49
2022/05/24 09:45:11;;;;;;;4.47;1.00;;;;;;;30.80;24.21;98229.16;5015929;28;20380;-48
2022/05/24 09:47:43;;;;;;;15.98;1.10;;;;;;;30.56;24.43;98227.34;5014446;28;20040;-48
2022/05/24 09:50:17;;;;;;;30.80;2.67;;;;;;;30.03;25.12;98227.34;5015845;28;20151;-49
2022/05/24 09:53:08;;;;;;;20.00;1.40;;;;;;;29.48;25.48;98232.19;5014493;28;20078;-48
2022/05/24 09:55:36;;;;;;;20.85;1.88;;;;;;;29.09;25.96;98227.00;5015597;28;20034;-50
2022/05/24 09:58:50;;;;;;;23.10;3.30;;;;;;;28.65;27.71;98231.22;5014322;28;20030;-47
2022/05/24 10:01:49;;;;;;;7.07;0.90;;;;;;;28.48;26.88;98230.22;5013546;28;20093;-48
2022/05/24 10:04:40;;;;;;;3.10;0.70;;;;;;;28.27;26.58;98224.03;5015524;28;20065;-48
2022/05/24 10:07:30;;;;;;;5.78;1.92;;;;;;;28.05;27.45;98217.84;5015458;28;20037;-48
2022/05/24 10:10:14;;;;;;;7.05;1.13;;;;;;;28.97;26.99;98215.38;5015382;28;20026;-49
2022/05/24 10:13:01;;;;;;;5.47;1.00;;;;;;;29.87;24.29;98217.19;5015700;28;20036;-48
2022/05/24 10:15:39;;;;;;;6.47;1.00;;;;;;;29.75;25.01;98214.50;5015185;28;20115;-50
2022/05/24 10:18:49;;;;;;;8.88;1.27;;;;;;;29.77;25.28;98217.66;5024311;28;20050;-50
2022/05/24 10:21:24;;;;;;;6.18;0.70;;;;;;;30.05;24.80;98216.97;5034943;28;20105;-49
2022/05/24 10:23:52;;;;;;;;;;;;;;;30.87;24.92;98221.25;5035374;28;20597;-49
2022/05/24 10:27:01;;;;;;;8.80;0.90;;;;;;;30.48;23.81;98215.53;5016988;28;20440;-49
2022/05/24 10:29:41;;;;;;;2.15;0.70;;;;;;;29.84;24.19;98207.06;5014764;28;20045;-50
2022/05/24 10:38:17;;;;;;;7.00;2.35;;;;;;;29.71;24.41;98213.59;5034767;28;20100;-50
2022/05/24 10:38:20;;;;;;;4.88;1.20;;;;;;;29.92;23.70;98209.97;5034942;28;20565;-49
2022/05/24 10:41:08;;;;;;;5.38;1.15;;;;;;;30.31;23.85;98197.66;5034472;28;20112;-48
2022/05/24 10:43:56;;;;;;;22.75;4.25;;;;;;;30.83;23.33;98201.41;5034012;28;20021;-49
2022/05/24 10:46:30;;;;;;;8.98;1.67;;;;;;;30.64;23.83;98197.41;5000882;28;20091;-49
2022/05/24 10:48:59;;;;;;;6.95;1.15;;;;;;;30.64;23.46;98200.09;5016669;28;20029;-49
2022/05/24 10:52:04;;;;;;;7.85;0.90;;;;;;;30.58;23.70;98195.28;5034335;28;20037;-50
2022/05/24 10:55:13;;;;;;;2.35;0.70;;;;;;;31.57;22.41;98182.78;4973267;28;20042;-50
2022/05/24 10:58:14;;;;;;;42.63;3.63;;;;;;;32.29;22.13;98183.56;4966249;28;20053;-49
2022/05/24 11:00:51;;;;;;;12.05;2.00;;;;;;;32.32;22.72;98183.63;4952744;28;20031;-49
2022/05/24 11:03:31;;;;;;;17.58;2.70;;;;;;;31.56;21.94;98177.69;4973212;28;20034;-48
2022/05/24 11:06:29;;;;;;;14.93;1.40;;;;;;;30.93;22.68;98171.09;4973166;28;20131;-49
2022/05/24 11:09:03;;;;;;;6.50;1.48;;;;;;;31.18;22.90;98160.09;4959905;28;20073;-48
2022/05/24 11:11:39;;;;;;;;;;;;;;;32.23;21.75;98156.66;4973485;28;20101;-49
2022/05/24 11:14:28;;;;;;;3.60;1.35;;;;;;;32.06;22.66;98167.19;4972936;28;19918;-49
2022/05/24 11:16:56;;;;;;;1.88;0.68;;;;;;;31.92;20.94;98157.56;4972936;28;20042;-49
2022/05/24 11:19:26;;;;;;;9.27;1.50;;;;;;;31.83;23.31;98151.53;4972862;28;20042;-50
2022/05/24 11:22:21;;;;;;;10.82;1.80;;;;;;;32.28;22.96;98144.75;4972915;28;20042;-50
2022/05/24 11:24:55;;;;;;;4.22;0.80;;;;;;;32.85;20.91;98145.06;4964205;28;20118;-49
2022/05/24 11:27:32;;;;;;;;;;;;;;;33.65;20.95;98138.97;4973116;28;20038;-49
2022/05/24 11:30:17;;;;;;;12.77;1.27;;;;;;;33.68;20.28;98140.97;4992599;28;20059;-48
2022/05/24 11:32:47;;;;;;;2.83;0.70;;;;;;;32.88;19.98;98148.97;5012509;28;20381;-49
2022/05/24 11:35:19;;;;;;;7.20;1.20;;;;;;;32.61;20.46;98143.47;5013668;28;20080;-48
2022/05/24 11:37:51;;;;;;;2.47;0.50;;;;;;;32.79;20.05;98139.13;5013758;28;20037;-49
2022/05/24 11:40:56;;;;;;;14.20;1.33;;;;;;;33.09;20.03;98138.50;5013752;28;20044;-49
2022/05/24 11:43:43;;;;;;;8.15;0.82;;;;;;;33.52;19.39;98136.41;5012412;28;20036;-49
2022/05/24 11:46:34;;;;;;;13.05;2.00;;;;;;;33.49;19.95;98137.16;5013546;28;20515;-49
2022/05/24 11:49:05;;;;;;;6.93;1.38;;;;;;;32.75;22.12;98126.63;5013744;28;20113;-48
2022/05/24 11:51:48;;;;;;;11.95;1.27;;;;;;;32.81;20.72;98123.25;5013458;28;20109;-49
2022/05/24 11:54:21;;;;;;;9.48;1.23;;;;;;;32.77;20.62;98121.63;5012563;28;20026;-50
2022/05/24 11:57:14;;;;;;;1.93;0.50;;;;;;;33.53;19.49;98116.25;5013377;28;20105;-50
2022/05/24 11:59:40;;;;;;;6.20;1.00;;;;;;;33.74;19.81;98114.97;5013277;28;20054;-49
2022/05/24 12:02:25;;;;;;;9.82;0.75;;;;;;;33.43;19.37;98106.78;5011951;28;20112;-48
2022/05/24 12:07:56;;;;;;;6.43;1.13;;;;;;;32.75;20.31;98107.59;5013463;28;20091;-49
2022/05/24 12:10:22;;;;;;;7.93;1.67;;;;;;;33.09;20.67;98105.09;5013213;28;20069;-50
2022/05/24 12:13:03;;;;;;;4.85;1.27;;;;;;;32.87;20.73;98101.22;5013111;28;20475;-50
2022/05/24 12:15:34;;;;;;;8.98;2.00;;;;;;;32.38;21.02;98105.38;5012916;28;20496;-50
2022/05/24 12:18:00;;;;;;;8.95;2.05;;;;;;;31.84;21.37;98115.91;5011433;28;20053;-50
2022/05/24 12:20:25;;;;;;;2.88;0.75;;;;;;;31.88;20.86;98107.06;5012924;28;20025;-50
2022/05/24 12:23:07;;;;;;;4.88;1.10;;;;;;;32.03;20.80;98104.28;5012951;28;20107;-50
2022/05/24 12:26:07;;;;;;;4.05;1.00;;;;;;;32.58;20.60;98095.28;5012900;28;20034;-50
2022/05/24 12:28:36;;;;;;;1.73;0.52;;;;;;;33.16;19.91;98099.75;5008829;28;20037;-50
2022/05/24 12:31:14;;;;;;;4.20;0.63;;;;;;;32.71;20.11;98093.94;5011466;28;20022;-50